Terminal Aerodrome Forecast
Issued by NWS

Home | Current Version | Previous Version | Text Only | Print | Product List | Glossary On
Versions: 1 2 3 4 5 6 7 8 9 10 11 12 13 14 15 16 17 18 19 20 21 22 23 24 25 26 27 28 29 30
370
FTUS41 KGYX 181120
TAFAUG
TAF
KAUG 181120Z 1812/1912 00000KT P6SM SCT250
     FM182100 16005KT P6SM OVC050 PROB30 1822/1824 4SM -RASN OVC025
     FM190000 12004KT 1SM -RA BR OVC050
     FM190600 13005KT 1SM RA BR OVC003 WS020/17035KT=

USA.gov is the U.S. government's official web portal to all federal, state and local government web resources and services.